FW3572 Weather Reports


Display with metric or nautical units.
time (UTC)temp
F
wind
direction
speed
MPH
gust
MPH
rain 1hr
in
rain 24hr
in
rain mn
in
humidity
%
barometer
mb
20211024222014 78 144 0.0 4.0 0.06 0.07 0.07 72 1016.6
20211024221522 78 144 1.0 3.0 0.05 0.06 0.06 72 1016.6
20211024221014 78 144 0.0 4.0 0.04 0.05 0.05 72 1016.7
20211024220514 78 144 1.0 4.0 0.03 0.04 0.04 71 1016.7
20211024220017 78 142 1.0 3.0 0.02 0.03 0.03 71 1016.5
20211024215513 78 138 0.0 4.0 0.01 0.02 0.02 71 1016.6
20211024215011 78 138 1.0 4.0 0.01 0.02 0.02 71 1016.5
20211024214513 79 132 0.0 3.0 0.00 0.01 0.01 71 1016.6
20211024214010 78 132 0.0 3.0 0.00 0.01 0.01 71 1016.5
20211024213518 78 132 0.0 4.0 0.00 0.01 0.01 71 1016.5
20211024213013 79 132 1.0 5.0 0.00 0.01 0.01 70 1016.6
20211024212510 79 134 2.0 5.0 0.00 0.01 0.01 69 1016.6
20211024212009 79 136 2.0 7.0 0.00 0.01 0.01 69 1016.5
20211024211510 79 115 2.0 7.0 0.00 0.01 0.01 68 1016.6
20211024211016 80 139 2.0 10.0 0.00 0.01 0.01 67 1016.5
20211024210514 80 106 4.0 10.0 0.00 0.01 0.01 66 1016.4
20211024210020 80 155 3.0 7.0 0.00 0.01 0.01 66 1016.3
20211024205516 80 90 3.0 9.0 0.00 0.01 0.01 66 1016.2
20211024205008 80 131 4.0 9.0 0.00 0.01 0.01 66 1016.3
20211024204559 81 115 4.0 8.0 0.00 0.01 0.01 66 1016.2
20211024204009 81 147 4.0 8.0 0.00 0.01 0.01 66 1016.3
20211024203517 81 88 4.0 9.0 0.00 0.01 0.01 66 1016.4
20211024203050 81 130 2.0 9.0 0.00 0.01 0.01 67 1016.4
20211024202508 81 147 4.0 8.0 0.00 0.01 0.01 67 1016.4
20211024202006 81 164 3.0 7.0 0.00 0.01 0.01 67 1016.4
20211024201508 81 115 2.0 7.0 0.00 0.01 0.01 67 1016.3
20211024201024 81 112 2.0 7.0 0.01 0.01 0.01 67 1016.3
20211024200506 81 161 3.0 7.0 0.01 0.01 0.01 67 1016.4
20211024200045 80 117 2.0 7.0 0.01 0.01 0.01 68 1016.5
20211024195506 80 120 2.0 6.0 0.01 0.01 0.01 68 1016.6
20211024195005 80 122 3.0 8.0 0.01 0.01 0.01 69 1016.6
20211024194510 80 136 3.0 7.0 0.01 0.01 0.01 69 1016.7
20211024194007 80 102 2.0 8.0 0.01 0.01 0.01 70 1016.7
20211024193505 80 105 3.0 8.0 0.01 0.01 0.01 70 1016.6
20211024193007 79 111 3.0 7.0 0.01 0.01 0.01 70 1016.6
20211024192505 79 115 3.0 7.0 0.01 0.01 0.01 70 1016.7
20211024192013 79 115 3.0 6.0 0.01 0.01 0.01 70 1016.8
20211024191514 79 86 1.0 6.0 0.01 0.01 0.01 70 1016.8
20211024191007 80 86 1.0 12.0 0.00 0.00 0.00 69 1016.9
20211024190504 80 148 2.0 12.0 0.00 0.00 0.00 68 1016.9
20211024190004 80 150 4.0 11.0 0.00 0.00 0.00 67 1016.8
20211024185505 80 158 6.0 11.0 0.00 0.00 0.00 66 1016.8
20211024185011 81 106 4.0 9.0 0.00 0.00 0.00 65 1017.0
20211024184508 81 113 4.0 9.0 0.00 0.00 0.00 64 1017.2
20211024184006 81 142 3.0 12.0 0.00 0.00 0.00 64 1017.2
20211024183506 82 165 3.0 9.0 0.00 0.00 0.00 64 1017.1
20211024183015 82 123 4.0 9.0 0.00 0.00 0.00 63 1017.1
20211024182001 82 146 4.0 12.0 0.00 0.00 0.00 63 1017.3
20211024181506 82 110 3.0 8.0 0.00 0.00 0.00 64 1017.4
20211024181001 82 161 4.0 9.0 0.00 0.00 0.00 64 1017.5
20211024180501 81 121 5.0 12.0 0.00 0.00 0.00 64 1017.3
20211024180001 81 121 6.0 12.0 0.00 0.00 0.00 64 1017.3
20211024175501 82 105 5.0 10.0 0.00 0.00 0.00 64 1017.4
20211024175110 82 123 5.0 10.0 0.00 0.00 0.00 64 1017.5
20211024174100 82 100 6.0 11.0 0.00 0.00 0.00 63 1017.5
20211024173234 82 122 4.0 12.0 0.00 0.00 0.00 64 1017.5
20211024172600 83 101 4.0 14.0 0.00 0.00 0.00 63 1017.5
20211024172503 83 102 3.0 14.0 0.00 0.00 0.00 63 1017.5
20211024172059 82 139 7.0 15.0 0.00 0.00 0.00 63 1017.6
20211024171623 82 88 7.0 15.0 0.00 0.00 0.00 63 1017.6
20211024171106 83 155 6.0 16.0 0.00 0.00 0.00 63 1017.8
20211024170614 83 154 6.0 15.0 0.00 0.00 0.00 63 1017.9
20211024170138 83 173 8.0 15.0 0.00 0.00 0.00 62 1018.0
20211024165602 85 152 6.0 16.0 0.00 0.00 0.00 61 1018.0
20211024165139 84 148 8.0 16.0 0.00 0.00 0.00 61 1018.1
20211024164631 84 142 8.0 14.0 0.00 0.00 0.00 61 1018.1
20211024164057 84 140 8.0 14.0 0.00 0.00 0.00 61 1018.2
20211024163557 84 107 7.0 14.0 0.00 0.00 0.00 60 1018.3
20211024163120 83 128 7.0 14.0 0.00 0.00 0.00 62 1018.4
20211024162605 83 106 5.0 14.0 0.00 0.00 0.00 62 1018.5
20211024162103 83 144 4.0 11.0 0.00 0.00 0.00 63 1018.5
20211024161623 83 101 5.0 11.0 0.00 0.00 0.00 63 1018.5
20211024161107 83 131 5.0 13.0 0.00 0.00 0.00 63 1018.5
20211024160605 83 149 4.0 13.0 0.00 0.00 0.00 63 1018.6
20211024160153 82 125 5.0 11.0 0.00 0.00 0.00 63 1018.5
20211024155602 83 103 7.0 12.0 0.00 0.00 0.00 62 1018.6
20211024155110 83 101 7.0 15.0 0.00 0.00 0.00 62 1018.6
20211024154627 83 149 5.0 15.0 0.00 0.00 0.00 62 1018.7
20211024154053 82 157 8.0 14.0 0.00 0.00 0.00 63 1018.7
20211024153600 82 128 6.0 13.0 0.00 0.00 0.00 63 1018.6
20211024153243 82 132 6.0 13.0 0.00 0.00 0.00 63 1018.7
20211024152555 82 155 3.0 14.0 0.00 0.00 0.00 63 1018.7
20211024152052 83 146 7.0 14.0 0.00 0.00 0.00 62 1018.6
20211024151818 83 144 6.0 11.0 0.00 0.00 0.00 62 1018.7
20211024151057 82 190 6.0 13.0 0.00 0.00 0.00 62 1018.7
20211024150558 83 142 6.0 14.0 0.00 0.00 0.00 60 1018.8
20211024150130 83 117 7.0 17.0 0.00 0.00 0.00 61 1018.7
20211024145608 83 142 6.0 17.0 0.00 0.00 0.00 61 1018.6
20211024145050 84 126 6.0 15.0 0.00 0.00 0.00 60 1018.6
20211024144624 84 117 7.0 15.0 0.00 0.00 0.00 60 1018.5
20211024144103 84 171 5.0 12.0 0.00 0.00 0.00 58 1018.6
20211024143553 84 137 6.0 12.0 0.00 0.00 0.00 60 1018.5
20211024143128 84 138 4.0 14.0 0.00 0.00 0.00 60 1018.5
20211024142551 83 114 8.0 14.0 0.00 0.00 0.00 60 1018.5
20211024142051 83 113 5.0 15.0 0.00 0.00 0.00 61 1018.5
20211024141618 82 152 8.0 15.0 0.00 0.00 0.00 62 1018.6
20211024141047 82 139 6.0 14.0 0.00 0.00 0.00 61 1018.6
20211024140546 83 148 5.0 12.0 0.00 0.00 0.00 60 1018.6
20211024140147 83 114 5.0 11.0 0.00 0.00 0.00 60 1018.6
20211024135553 83 128 3.0 11.0 0.00 0.00 0.00 61 1018.4
20211024135054 82 169 5.0 15.0 0.00 0.00 0.00 62 1018.4
20211024134556 81 132 7.0 15.0 0.00 0.00 0.00 63 1018.4
20211024134040 81 88 3.0 8.0 0.00 0.00 0.00 67 1018.4
20211024133629 81 136 2.0 8.0 0.00 0.00 0.00 68 1018.3
20211024133139 80 164 3.0 9.0 0.00 0.00 0.00 68 1018.3
20211024132538 80 117 3.0 9.0 0.00 0.00 0.00 68 1018.1
20211024132041 80 150 4.0 8.0 0.00 0.00 0.00 67 1018.2
20211024131605 79 140 4.0 10.0 0.00 0.00 0.00 66 1018.1
20211024131038 79 114 4.0 10.0 0.00 0.00 0.00 68 1018.1
20211024130541 79 118 1.0 6.0 0.00 0.00 0.00 69 1018.1
20211024130113 79 147 1.0 7.0 0.00 0.00 0.00 68 1018.1
20211024125535 80 171 3.0 12.0 0.00 0.00 0.00 68 1017.9
20211024125034 80 121 4.0 12.0 0.00 0.00 0.00 67 1017.8
20211024124607 80 110 3.0 8.0 0.00 0.00 0.00 67 1017.8
20211024124033 79 117 0.0 8.0 0.00 0.00 0.00 68 1017.8
20211024123541 79 116 1.0 8.0 0.00 0.00 0.00 68 1017.7
20211024123048 79 111 0.0 3.0 0.00 0.00 0.00 68 1017.7
20211024122551 79 111 0.0 6.0 0.00 0.00 0.00 68 1017.7
20211024122031 79 113 1.0 6.0 0.00 0.00 0.00 67 1017.6
20211024121535 79 65 1.0 7.0 0.00 0.00 0.00 66 1017.6
20211024121036 80 130 2.0 7.0 0.00 0.00 0.00 66 1017.6
20211024120534 80 102 0.0 6.0 0.00 0.00 0.00 65 1017.6
20211024120105 80 92 1.0 4.0 0.00 0.00 0.00 65 1017.5
20211024115529 80 89 1.0 6.0 0.00 0.00 0.00 65 1017.4
20211024115042 80 104 2.0 6.0 0.00 0.00 0.00 65 1017.3
20211024114534 80 89 2.0 7.0 0.00 0.00 0.00 64 1017.3
20211024114030 80 108 2.0 7.0 0.00 0.00 0.00 65 1017.3
20211024113537 80 111 2.0 4.0 0.00 0.00 0.00 65 1017.3
20211024113042 80 109 2.0 6.0 0.00 0.00 0.00 65 1017.4
20211024112527 80 96 1.0 6.0 0.00 0.00 0.00 64 1017.4
20211024112026 80 114 2.0 8.0 0.00 0.00 0.00 64 1017.3
20211024111535 80 129 4.0 8.0 0.00 0.00 0.00 65 1017.2
20211024111026 80 108 2.0 8.0 0.00 0.00 0.00 65 1017.1
20211024110552 80 107 1.0 8.0 0.00 0.00 0.00 64 1017.0
20211024110030 80 87 2.0 8.0 0.00 0.00 0.00 64 1016.9
20211024105559 80 98 3.0 11.0 0.00 0.00 0.00 64 1016.8
20211024105025 80 98 3.0 11.0 0.00 0.00 0.00 64 1016.7
20211024104547 80 111 4.0 11.0 0.00 0.00 0.00 65 1016.7
20211024104048 80 113 2.0 7.0 0.00 0.00 0.00 65 1016.8
20211024103525 80 99 2.0 6.0 0.00 0.00 0.00 65 1016.8
20211024103119 80 105 2.0 4.0 0.00 0.00 0.00 65 1016.8
20211024102527 80 122 2.0 4.0 0.00 0.00 0.00 65 1016.9
20211024102024 79 88 1.0 4.0 0.00 0.00 0.00 65 1016.9
20211024101616 79 70 1.0 4.0 0.00 0.00 0.00 65 1016.8
20211024101027 79 46 0.0 6.0 0.00 0.00 0.00 65 1016.8
20211024100524 79 73 1.0 6.0 0.00 0.00 0.00 65 1016.7
20211024100041 80 90 1.0 9.0 0.00 0.00 0.00 64 1016.6
20211024095524 80 113 2.0 9.0 0.00 0.00 0.00 64 1016.6
20211024095030 80 93 3.0 7.0 0.00 0.00 0.00 64 1016.7
20211024094528 79 115 2.0 4.0 0.00 0.00 0.00 64 1016.7
20211024094022 79 103 1.0 4.0 0.00 0.00 0.00 64 1016.5
20211024093523 79 76 2.0 4.0 0.00 0.00 0.00 65 1016.4
20211024093037 79 92 1.0 4.0 0.00 0.00 0.00 65 1016.4
20211024092524 79 86 2.0 4.0 0.00 0.00 0.00 65 1016.5
20211024092022 79 126 2.0 4.0 0.00 0.00 0.00 65 1016.6
20211024091540 79 94 1.0 4.0 0.00 0.00 0.00 65 1016.5
20211024091021 79 92 1.0 3.0 0.00 0.00 0.00 64 1016.5
20211024090521 79 88 1.0 6.0 0.00 0.00 0.00 64 1016.5
20211024090023 79 90 2.0 6.0 0.00 0.00 0.00 64 1016.4
20211024085528 79 105 2.0 4.0 0.00 0.00 0.00 64 1016.5
20211024085019 79 102 2.0 5.0 0.00 0.00 0.00 64 1016.4
20211024084525 79 92 1.0 7.0 0.00 0.00 0.00 64 1016.4
20211024084025 79 103 3.0 7.0 0.00 0.00 0.00 63 1016.5
20211024083519 79 105 1.0 3.0 0.00 0.00 0.00 63 1016.6
20211024083027 79 99 1.0 3.0 0.00 0.00 0.00 63 1016.4
20211024082519 79 70 1.0 5.0 0.00 0.00 0.00 63 1016.4
20211024082020 79 118 1.0 5.0 0.00 0.00 0.00 63 1016.3
20211024081548 79 92 1.0 6.0 0.00 0.00 0.00 64 1016.3
20211024081018 79 97 1.0 4.0 0.00 0.00 0.00 64 1016.3
20211024080518 79 99 2.0 4.0 0.00 0.00 0.00 64 1016.4
20211024080023 79 90 1.0 7.0 0.00 0.00 0.00 64 1016.4
20211024075521 79 136 2.0 7.0 0.00 0.00 0.00 64 1016.4
20211024075018 79 63 1.0 7.0 0.00 0.00 0.00 64 1016.4
20211024074523 79 98 2.0 7.0 0.00 0.00 0.00 64 1016.6
20211024074019 79 105 2.0 8.0 0.00 0.00 0.00 64 1016.6
20211024073526 79 98 1.0 8.0 0.00 0.00 0.00 64 1016.8
20211024073018 79 96 2.0 7.0 0.00 0.00 0.00 64 1016.6
20211024072516 80 86 2.0 8.0 0.00 0.00 0.00 64 1016.5
20211024072026 80 116 2.0 8.0 0.00 0.00 0.00 64 1016.5
20211024071525 79 90 2.0 10.0 0.00 0.00 0.00 64 1016.4
20211024071030 79 131 2.0 6.0 0.00 0.00 0.00 65 1016.4
20211024070518 79 72 0.0 5.0 0.00 0.00 0.00 64 1016.5
20211024070026 79 60 2.0 5.0 0.00 0.00 0.00 65 1016.7
20211024065513 79 70 1.0 6.0 0.00 0.00 0.00 65 1016.8
20211024065023 79 106 2.0 6.0 0.00 0.00 0.00 66 1016.9
20211024064517 79 69 0.0 3.0 0.00 0.00 0.00 65 1016.7
20211024064034 79 57 0.0 5.0 0.00 0.00 0.00 64 1016.8
20211024063545 79 63 0.0 3.0 0.00 0.00 0.00 62 1016.9
20211024063014 79 63 0.0 3.0 0.00 0.00 0.00 61 1016.9
20211024062516 79 53 0.0 4.0 0.00 0.00 0.00 60 1016.9
20211024062028 79 105 0.0 4.0 0.00 0.00 0.00 61 1017.0
20211024061522 79 98 1.0 6.0 0.00 0.00 0.00 62 1016.9
20211024061008 79 143 1.0 8.0 0.00 0.00 0.00 63 1017.0
20211024060508 79 111 2.0 8.0 0.00 0.00 0.00 64 1017.0
20211024060029 79 80 2.0 12.0 0.00 0.00 0.00 65 1017.0
20211024055507 79 121 2.0 12.0 0.00 0.00 0.00 65 1017.0
20211024055024 79 112 0.0 6.0 0.00 0.00 0.00 65 1016.9
20211024054508 79 102 2.0 4.0 0.00 0.00 0.00 65 1016.8
20211024054006 79 64 1.0 4.0 0.00 0.00 0.00 65 1016.9
20211024053505 79 75 1.0 4.0 0.00 0.00 0.00 65 1016.8
20211024053013 79 85 1.0 7.0 0.00 0.00 0.00 65 1017.0
20211024052505 79 111 1.0 7.0 0.00 0.00 0.00 64 1017.0
20211024052007 79 109 1.0 7.0 0.00 0.00 0.00 64 1017.0
20211024051504 79 96 2.0 5.0 0.00 0.00 0.00 64 1017.1
20211024051003 79 84 1.0 6.0 0.00 0.00 0.00 64 1017.1
20211024050502 79 108 1.0 6.0 0.00 0.00 0.00 65 1017.2
20211024050004 79 85 1.0 6.0 0.00 0.00 0.00 65 1017.2
20211024045506 79 70 0.0 4.0 0.00 0.00 0.00 64 1017.3
20211024045001 79 79 0.0 4.0 0.00 0.00 0.00 64 1017.3
20211024044502 79 61 0.0 5.0 0.00 0.00 0.00 63 1017.3
20211024044003 79 142 0.0 5.0 0.00 0.00 0.00 63 1017.3
20211024043604 79 98 1.0 4.0 0.00 0.00 0.00 63 1017.2
20211024043233 79 122 1.0 4.0 0.00 0.00 0.00 62 1017.2
20211024042632 79 105 1.0 3.0 0.00 0.00 0.00 62 1017.3
20211024042108 79 90 1.0 4.0 0.00 0.00 0.00 62 1017.4
20211024041624 79 77 1.0 4.0 0.00 0.00 0.00 62 1017.5
20211024041058 79 92 1.0 4.0 0.00 0.00 0.00 62 1017.5
20211024040556 79 92 1.0 4.0 0.00 0.00 0.00 63 1017.6
20211024040100 79 112 1.0 4.0 0.00 0.00 0.00 63 1017.5
20211024035555 79 95 0.0 3.0 0.00 0.00 0.00 64 1017.6
20211024035055 78 55 0.0 3.0 0.00 0.00 0.00 63 1017.7
20211024034711 78 56 0.0 4.0 0.00 0.00 0.00 63 1017.7
20211024034054 79 54 0.0 6.0 0.00 0.00 0.00 63 1017.6
20211024033554 79 63 1.0 6.0 0.00 0.00 0.00 62 1017.6
20211024033123 79 49 3.0 6.0 0.00 0.00 0.00 63 1017.6
20211024032600 80 48 1.0 6.0 0.00 0.00 0.00 63 1017.6
20211024032053 80 46 1.0 7.0 0.00 0.00 0.00 63 1017.7
20211024031648 80 78 1.0 4.0 0.00 0.00 0.00 63 1017.7
20211024031105 79 70 1.0 3.0 0.00 0.00 0.00 62 1017.7
20211024030553 80 93 0.0 4.0 0.00 0.00 0.00 62 1017.7
20211024030128 80 52 1.0 7.0 0.00 0.00 0.00 62 1017.8
20211024025608 80 61 1.0 7.0 0.00 0.00 0.00 62 1017.8
20211024025052 80 61 1.0 6.0 0.00 0.00 0.00 62 1017.7
20211024024716 80 40 1.0 6.0 0.00 0.00 0.00 61 1017.6
20211024024103 80 71 1.0 6.0 0.00 0.00 0.00 61 1017.6
20211024023552 80 91 0.0 6.0 0.00 0.00 0.00 61 1017.8
20211024023113 80 89 0.0 4.0 0.00 0.00 0.00 61 1017.8
20211024022551 80 72 0.0 4.0 0.00 0.00 0.00 61 1017.7
20211024022052 80 34 1.0 5.0 0.00 0.00 0.00 61 1017.7
20211024021631 80 37 1.0 6.0 0.00 0.00 0.00 61 1017.7
20211024021100 80 67 2.0 6.0 0.00 0.00 0.00 61 1017.6
20211024020551 80 56 0.0 4.0 0.00 0.00 0.00 61 1017.7
20211024020126 80 64 1.0 4.0 0.00 0.00 0.00 62 1017.5
20211024015558 80 92 0.0 4.0 0.00 0.00 0.00 62 1017.5
20211024015056 80 63 1.0 5.0 0.00 0.00 0.00 62 1017.3
20211024014701 80 74 1.0 6.0 0.00 0.00 0.00 62 1017.3
20211024014125 80 50 0.0 5.0 0.00 0.00 0.00 62 1017.4
20211024013555 79 50 1.0 5.0 0.00 0.00 0.00 62 1017.3
20211024013248 80 45 1.0 5.0 0.00 0.00 0.00 62 1017.3
20211024012550 80 49 1.0 5.0 0.00 0.00 0.00 62 1017.2
20211024012110 80 74 1.0 4.0 0.00 0.00 0.00 62 1017.1
20211024011624 80 54 1.0 4.0 0.00 0.00 0.00 62 1017.1
20211024011101 80 88 0.0 6.0 0.00 0.00 0.00 62 1017.1
20211024010600 80 50 0.0 7.0 0.00 0.00 0.00 62 1017.1
20211024010126 80 83 1.0 7.0 0.00 0.00 0.00 62 1017.1
20211024005606 80 36 2.0 8.0 0.00 0.00 0.00 62 1017.1
20211024005107 80 38 2.0 8.0 0.00 0.00 0.00 62 1017.0
20211024004602 79 67 1.0 4.0 0.00 0.00 0.00 63 1017.0
20211024004054 79 73 0.0 4.0 0.00 0.00 0.00 62 1017.0
20211024003614 79 28 0.0 5.0 0.00 0.00 0.00 62 1016.8
20211024003049 80 49 2.0 5.0 0.00 0.00 0.00 62 1016.9
20211024002610 79 84 2.0 5.0 0.00 0.00 0.00 62 1016.8
20211024002047 79 42 0.0 4.0 0.00 0.00 0.00 62 1016.6
20211024001624 79 30 0.0 4.0 0.00 0.00 0.00 62 1016.6
20211024001104 79 53 1.0 6.0 0.00 0.00 0.00 62 1016.6
20211024000552 79 28 1.0 6.0 0.00 0.00 0.00 62 1016.4
20211024000057 79 42 1.0 5.0 0.00 0.00 0.00 62 1016.4
20211023235553 79 41 0.0 5.0 0.00 0.00 0.00 62 1016.3
20211023235046 79 28 1.0 8.0 0.00 0.00 0.00 62 1016.3
20211023234550 79 65 0.0 4.0 0.00 0.00 0.00 62 1016.3
20211023234046 79 14 1.0 4.0 0.00 0.00 0.00 62 1016.3
20211023233545 79 35 1.0 5.0 0.00 0.00 0.00 62 1016.2
20211023233229 79 34 2.0 5.0 0.00 0.00 0.00 62 1016.1
20211023232551 79 42 1.0 5.0 0.00 0.00 0.00 62 1016.1
20211023232045 79 54 0.0 5.0 0.00 0.00 0.00 62 1016.1
20211023231643 79 46 2.0 5.0 0.00 0.00 0.00 62 1016.0
20211023231045 80 16 1.0 5.0 0.00 0.00 0.00 62 1016.1
20211023230544 80 21 2.0 4.0 0.00 0.00 0.00 62 1016.0
20211023230125 80 70 1.0 4.0 0.00 0.00 0.00 62 1015.9
20211023225543 80 75 0.0 6.0 0.00 0.00 0.00 62 1015.9
20211023225051 80 45 1.0 6.0 0.00 0.00 0.00 62 1015.8
20211023224700 80 60 0.0 5.0 0.00 0.00 0.00 62 1015.8
20211023224043 80 59 1.0 6.0 0.00 0.00 0.00 62 1015.7
20211023223542 80 5 1.0 6.0 0.00 0.00 0.00 62 1015.6
20211023223145 80 36 1.0 6.0 0.00 0.00 0.00 62 1015.8
20211023222543 80 44 2.0 6.0 0.00 0.00 0.00 61 1015.7